sensor_id;sensor_type;location;lat;lon;timestamp;P1;P2;P0
43479;PMS5003;29067;35.492;-97.520;2022-10-16T00:01:19;5;5;
43479;PMS5003;29067;35.492;-97.520;2022-10-16T00:03:49;6;6;
43479;PMS5003;29067;35.492;-97.520;2022-10-16T00:06:19;7;7;
43479;PMS5003;29067;35.492;-97.520;2022-10-16T00:08:48;6;6;
43479;PMS5003;29067;35.492;-97.520;2022-10-16T00:11:18;8;8;
43479;PMS5003;29067;35.492;-97.520;2022-10-16T00:13:48;5;5;
43479;PMS5003;29067;35.492;-97.520;2022-10-16T00:16:18;6;6;
43479;PMS5003;29067;35.492;-97.520;2022-10-16T00:18:46;7;7;
43479;PMS5003;29067;35.492;-97.520;2022-10-16T00:21:15;4;4;
43479;PMS5003;29067;35.492;-97.520;2022-10-16T00:23:45;5;4;
43479;PMS5003;29067;35.492;-97.520;2022-10-16T00:26:16;7;7;
43479;PMS5003;29067;35.492;-97.520;2022-10-16T00:28:45;8;7;
43479;PMS5003;29067;35.492;-97.520;2022-10-16T00:31:14;6;5;
43479;PMS5003;29067;35.492;-97.520;2022-10-16T00:33:43;5;4;
43479;PMS5003;29067;35.492;-97.520;2022-10-16T00:36:12;5;4;
43479;PMS5003;29067;35.492;-97.520;2022-10-16T00:38:42;4;4;
43479;PMS5003;29067;35.492;-97.520;2022-10-16T00:41:11;5;5;
43479;PMS5003;29067;35.492;-97.520;2022-10-16T00:43:43;7;6;
43479;PMS5003;29067;35.492;-97.520;2022-10-16T00:46:14;4;4;
43479;PMS5003;29067;35.492;-97.520;2022-10-16T00:48:46;5;5;
43479;PMS5003;29067;35.492;-97.520;2022-10-16T00:51:19;5;5;
43479;PMS5003;29067;35.492;-97.520;2022-10-16T00:53:51;5;5;
43479;PMS5003;29067;35.492;-97.520;2022-10-16T00:56:20;7;5;
43479;PMS5003;29067;35.492;-97.520;2022-10-16T00:58:48;6;6;
43479;PMS5003;29067;35.492;-97.520;2022-10-16T01:01:17;6;5;
43479;PMS5003;29067;35.492;-97.520;2022-10-16T01:03:44;7;7;
43479;PMS5003;29067;35.492;-97.520;2022-10-16T01:06:15;8;8;
43479;PMS5003;29067;35.492;-97.520;2022-10-16T01:08:53;7;7;
43479;PMS5003;29067;35.492;-97.520;2022-10-16T01:11:35;7;6;
43479;PMS5003;29067;35.492;-97.520;2022-10-16T01:14:13;8;8;
43479;PMS5003;29067;35.492;-97.520;2022-10-16T01:16:48;10;9;
43479;PMS5003;29067;35.492;-97.520;2022-10-16T01:19:20;9;9;
43479;PMS5003;29067;35.492;-97.520;2022-10-16T01:22:03;10;9;
43479;PMS5003;29067;35.492;-97.520;2022-10-16T01:24:34;8;7;
43479;PMS5003;29067;35.492;-97.520;2022-10-16T01:27:07;7;7;
43479;PMS5003;29067;35.492;-97.520;2022-10-16T01:29:39;6;6;
43479;PMS5003;29067;35.492;-97.520;2022-10-16T01:32:16;7;7;
43479;PMS5003;29067;35.492;-97.520;2022-10-16T01:34:48;8;7;
43479;PMS5003;29067;35.492;-97.520;2022-10-16T01:37:23;7;6;
43479;PMS5003;29067;35.492;-97.520;2022-10-16T01:39:58;8;8;
43479;PMS5003;29067;35.492;-97.520;2022-10-16T01:42:30;7;7;
43479;PMS5003;29067;35.492;-97.520;2022-10-16T01:45:02;7;7;
43479;PMS5003;29067;35.492;-97.520;2022-10-16T01:47:33;9;8;
43479;PMS5003;29067;35.492;-97.520;2022-10-16T01:50:03;9;9;
43479;PMS5003;29067;35.492;-97.520;2022-10-16T01:52:33;8;8;
43479;PMS5003;29067;35.492;-97.520;2022-10-16T01:55:04;8;8;
43479;PMS5003;29067;35.492;-97.520;2022-10-16T01:57:36;8;8;
43479;PMS5003;29067;35.492;-97.520;2022-10-16T02:00:10;6;5;
43479;PMS5003;29067;35.492;-97.520;2022-10-16T02:02:40;8;7;
43479;PMS5003;29067;35.492;-97.520;2022-10-16T02:05:13;6;6;
43479;PMS5003;29067;35.492;-97.520;2022-10-16T02:07:47;9;8;
43479;PMS5003;29067;35.492;-97.520;2022-10-16T02:10:15;9;9;
43479;PMS5003;29067;35.492;-97.520;2022-10-16T02:12:45;8;8;
43479;PMS5003;29067;35.492;-97.520;2022-10-16T02:15:17;6;6;
43479;PMS5003;29067;35.492;-97.520;2022-10-16T02:17:44;6;6;
43479;PMS5003;29067;35.492;-97.520;2022-10-16T02:20:12;6;6;
43479;PMS5003;29067;35.492;-97.520;2022-10-16T02:22:40;7;7;
43479;PMS5003;29067;35.492;-97.520;2022-10-16T02:25:11;9;8;
43479;PMS5003;29067;35.492;-97.520;2022-10-16T02:27:45;7;7;
43479;PMS5003;29067;35.492;-97.520;2022-10-16T02:30:21;7;6;
43479;PMS5003;29067;35.492;-97.520;2022-10-16T02:32:54;8;8;
43479;PMS5003;29067;35.492;-97.520;2022-10-16T02:35:25;7;7;
43479;PMS5003;29067;35.492;-97.520;2022-10-16T02:37:56;6;6;
43479;PMS5003;29067;35.492;-97.520;2022-10-16T02:40:26;7;7;
43479;PMS5003;29067;35.492;-97.520;2022-10-16T02:42:54;8;8;
43479;PMS5003;29067;35.492;-97.520;2022-10-16T02:45:22;7;7;
43479;PMS5003;29067;35.492;-97.520;2022-10-16T02:47:52;8;8;
43479;PMS5003;29067;35.492;-97.520;2022-10-16T02:50:20;6;6;
43479;PMS5003;29067;35.492;-97.520;2022-10-16T02:52:48;5;5;
43479;PMS5003;29067;35.492;-97.520;2022-10-16T02:55:15;7;7;
43479;PMS5003;29067;35.492;-97.520;2022-10-16T02:57:44;6;6;
43479;PMS5003;29067;35.492;-97.520;2022-10-16T03:00:12;8;7;
43479;PMS5003;29067;35.492;-97.520;2022-10-16T03:02:41;6;6;
43479;PMS5003;29067;35.492;-97.520;2022-10-16T03:05:10;8;8;
43479;PMS5003;29067;35.492;-97.520;2022-10-16T03:07:37;4;4;
43479;PMS5003;29067;35.492;-97.520;2022-10-16T03:10:05;8;7;
43479;PMS5003;29067;35.492;-97.520;2022-10-16T03:12:33;5;5;
43479;PMS5003;29067;35.492;-97.520;2022-10-16T03:15:01;6;6;
43479;PMS5003;29067;35.492;-97.520;2022-10-16T03:17:29;8;8;
43479;PMS5003;29067;35.492;-97.520;2022-10-16T03:20:00;8;5;
43479;PMS5003;29067;35.492;-97.520;2022-10-16T03:22:27;7;7;
43479;PMS5003;29067;35.492;-97.520;2022-10-16T03:24:55;7;7;
43479;PMS5003;29067;35.492;-97.520;2022-10-16T03:27:22;7;7;
43479;PMS5003;29067;35.492;-97.520;2022-10-16T03:29:50;6;6;
43479;PMS5003;29067;35.492;-97.520;2022-10-16T03:32:17;2;2;
43479;PMS5003;29067;35.492;-97.520;2022-10-16T03:34:45;1;1;
43479;PMS5003;29067;35.492;-97.520;2022-10-16T03:37:13;1;1;
43479;PMS5003;29067;35.492;-97.520;2022-10-16T03:39:40;1;1;
43479;PMS5003;29067;35.492;-97.520;2022-10-16T03:42:08;2;1;
43479;PMS5003;29067;35.492;-97.520;2022-10-16T03:44:36;2;2;
43479;PMS5003;29067;35.492;-97.520;2022-10-16T03:47:04;1;1;
43479;PMS5003;29067;35.492;-97.520;2022-10-16T03:49:32;1;1;
43479;PMS5003;29067;35.492;-97.520;2022-10-16T03:51:59;3;3;
43479;PMS5003;29067;35.492;-97.520;2022-10-16T03:54:27;4;3;
43479;PMS5003;29067;35.492;-97.520;2022-10-16T03:56:55;2;2;
43479;PMS5003;29067;35.492;-97.520;2022-10-16T03:59:23;1;1;
43479;PMS5003;29067;35.492;-97.520;2022-10-16T04:01:50;1;1;
43479;PMS5003;29067;35.492;-97.520;2022-10-16T04:04:18;2;1;
43479;PMS5003;29067;35.492;-97.520;2022-10-16T04:06:46;1;1;
43479;PMS5003;29067;35.492;-97.520;2022-10-16T04:09:14;2;2;
43479;PMS5003;29067;35.492;-97.520;2022-10-16T04:11:41;1;1;
43479;PMS5003;29067;35.492;-97.520;2022-10-16T04:14:09;2;1;
43479;PMS5003;29067;35.492;-97.520;2022-10-16T04:16:37;1;1;
43479;PMS5003;29067;35.492;-97.520;2022-10-16T04:19:04;1;1;
43479;PMS5003;29067;35.492;-97.520;2022-10-16T04:21:32;2;2;
43479;PMS5003;29067;35.492;-97.520;2022-10-16T04:24:00;2;1;
43479;PMS5003;29067;35.492;-97.520;2022-10-16T04:26:27;1;1;
43479;PMS5003;29067;35.492;-97.520;2022-10-16T04:28:56;1;1;
43479;PMS5003;29067;35.492;-97.520;2022-10-16T04:31:24;0;0;
43479;PMS5003;29067;35.492;-97.520;2022-10-16T04:33:51;0;0;
43479;PMS5003;29067;35.492;-97.520;2022-10-16T04:36:19;1;1;
43479;PMS5003;29067;35.492;-97.520;2022-10-16T04:38:47;1;1;
43479;PMS5003;29067;35.492;-97.520;2022-10-16T04:41:15;4;2;
43479;PMS5003;29067;35.492;-97.520;2022-10-16T04:43:42;2;2;
43479;PMS5003;29067;35.492;-97.520;2022-10-16T04:46:10;1;1;
43479;PMS5003;29067;35.492;-97.520;2022-10-16T04:48:38;1;1;
43479;PMS5003;29067;35.492;-97.520;2022-10-16T04:51:06;2;1;
43479;PMS5003;29067;35.492;-97.520;2022-10-16T04:53:33;1;1;
43479;PMS5003;29067;35.492;-97.520;2022-10-16T04:56:01;0;0;
43479;PMS5003;29067;35.492;-97.520;2022-10-16T04:58:30;0;0;
43479;PMS5003;29067;35.492;-97.520;2022-10-16T05:00:57;0;0;
43479;PMS5003;29067;35.492;-97.520;2022-10-16T05:03:25;0;0;
43479;PMS5003;29067;35.492;-97.520;2022-10-16T05:05:53;0;0;
43479;PMS5003;29067;35.492;-97.520;2022-10-16T05:08:21;0;0;
43479;PMS5003;29067;35.492;-97.520;2022-10-16T05:10:48;0;0;
43479;PMS5003;29067;35.492;-97.520;2022-10-16T05:13:16;1;1;
43479;PMS5003;29067;35.492;-97.520;2022-10-16T05:15:46;0;0;
43479;PMS5003;29067;35.492;-97.520;2022-10-16T05:18:14;1;1;
43479;PMS5003;29067;35.492;-97.520;2022-10-16T05:20:42;1;1;
43479;PMS5003;29067;35.492;-97.520;2022-10-16T05:23:09;0;0;
43479;PMS5003;29067;35.492;-97.520;2022-10-16T05:25:37;2;2;
43479;PMS5003;29067;35.492;-97.520;2022-10-16T05:28:05;1;1;
43479;PMS5003;29067;35.492;-97.520;2022-10-16T05:30:32;1;1;
43479;PMS5003;29067;35.492;-97.520;2022-10-16T05:33:00;1;0;
43479;PMS5003;29067;35.492;-97.520;2022-10-16T05:35:28;0;0;
43479;PMS5003;29067;35.492;-97.520;2022-10-16T05:37:55;0;0;
43479;PMS5003;29067;35.492;-97.520;2022-10-16T05:40:23;1;1;
43479;PMS5003;29067;35.492;-97.520;2022-10-16T05:42:54;1;1;
43479;PMS5003;29067;35.492;-97.520;2022-10-16T05:45:22;1;1;
43479;PMS5003;29067;35.492;-97.520;2022-10-16T05:47:50;1;1;
43479;PMS5003;29067;35.492;-97.520;2022-10-16T05:50:18;1;1;
43479;PMS5003;29067;35.492;-97.520;2022-10-16T05:52:46;2;2;
43479;PMS5003;29067;35.492;-97.520;2022-10-16T05:55:14;1;1;
43479;PMS5003;29067;35.492;-97.520;2022-10-16T05:57:41;3;1;
43479;PMS5003;29067;35.492;-97.520;2022-10-16T06:00:09;2;1;
43479;PMS5003;29067;35.492;-97.520;2022-10-16T06:02:38;1;1;
43479;PMS5003;29067;35.492;-97.520;2022-10-16T06:05:06;2;2;
43479;PMS5003;29067;35.492;-97.520;2022-10-16T06:07:34;2;2;
43479;PMS5003;29067;35.492;-97.520;2022-10-16T06:10:03;1;1;
43479;PMS5003;29067;35.492;-97.520;2022-10-16T06:12:31;1;1;
43479;PMS5003;29067;35.492;-97.520;2022-10-16T06:14:59;1;1;
43479;PMS5003;29067;35.492;-97.520;2022-10-16T06:17:26;1;1;
43479;PMS5003;29067;35.492;-97.520;2022-10-16T06:19:54;1;1;
43479;PMS5003;29067;35.492;-97.520;2022-10-16T06:22:22;2;2;
43479;PMS5003;29067;35.492;-97.520;2022-10-16T06:24:49;1;1;
43479;PMS5003;29067;35.492;-97.520;2022-10-16T06:27:17;3;3;
43479;PMS5003;29067;35.492;-97.520;2022-10-16T06:29:45;1;1;
43479;PMS5003;29067;35.492;-97.520;2022-10-16T06:32:12;3;3;
43479;PMS5003;29067;35.492;-97.520;2022-10-16T06:34:40;2;2;
43479;PMS5003;29067;35.492;-97.520;2022-10-16T06:37:08;1;1;
43479;PMS5003;29067;35.492;-97.520;2022-10-16T06:39:36;2;2;
43479;PMS5003;29067;35.492;-97.520;2022-10-16T06:42:03;2;2;
43479;PMS5003;29067;35.492;-97.520;2022-10-16T06:44:31;4;3;
43479;PMS5003;29067;35.492;-97.520;2022-10-16T06:46:59;1;1;
43479;PMS5003;29067;35.492;-97.520;2022-10-16T06:49:27;2;2;
43479;PMS5003;29067;35.492;-97.520;2022-10-16T06:51:55;2;2;
43479;PMS5003;29067;35.492;-97.520;2022-10-16T06:54:23;2;2;
43479;PMS5003;29067;35.492;-97.520;2022-10-16T06:56:51;2;2;
43479;PMS5003;29067;35.492;-97.520;2022-10-16T06:59:19;3;2;
43479;PMS5003;29067;35.492;-97.520;2022-10-16T07:01:47;4;4;
43479;PMS5003;29067;35.492;-97.520;2022-10-16T07:04:14;3;3;
43479;PMS5003;29067;35.492;-97.520;2022-10-16T07:06:42;2;2;
43479;PMS5003;29067;35.492;-97.520;2022-10-16T07:09:10;3;3;
43479;PMS5003;29067;35.492;-97.520;2022-10-16T07:11:39;3;3;
43479;PMS5003;29067;35.492;-97.520;2022-10-16T07:14:10;3;3;
43479;PMS5003;29067;35.492;-97.520;2022-10-16T07:16:42;5;5;
43479;PMS5003;29067;35.492;-97.520;2022-10-16T07:19:10;4;4;
43479;PMS5003;29067;35.492;-97.520;2022-10-16T07:21:37;4;4;
43479;PMS5003;29067;35.492;-97.520;2022-10-16T07:24:06;3;3;
43479;PMS5003;29067;35.492;-97.520;2022-10-16T07:26:38;4;4;
43479;PMS5003;29067;35.492;-97.520;2022-10-16T07:29:09;3;3;
43479;PMS5003;29067;35.492;-97.520;2022-10-16T07:31:40;4;4;
43479;PMS5003;29067;35.492;-97.520;2022-10-16T07:34:08;4;4;
43479;PMS5003;29067;35.492;-97.520;2022-10-16T07:36:38;5;5;
43479;PMS5003;29067;35.492;-97.520;2022-10-16T07:39:05;4;4;
43479;PMS5003;29067;35.492;-97.520;2022-10-16T07:41:34;6;4;
43479;PMS5003;29067;35.492;-97.520;2022-10-16T07:44:02;4;4;
43479;PMS5003;29067;35.492;-97.520;2022-10-16T07:46:30;4;4;
43479;PMS5003;29067;35.492;-97.520;2022-10-16T07:48:59;4;4;
43479;PMS5003;29067;35.492;-97.520;2022-10-16T07:51:27;5;4;
43479;PMS5003;29067;35.492;-97.520;2022-10-16T07:53:55;4;4;
43479;PMS5003;29067;35.492;-97.520;2022-10-16T07:56:23;5;4;
43479;PMS5003;29067;35.492;-97.520;2022-10-16T07:58:51;5;4;
43479;PMS5003;29067;35.492;-97.520;2022-10-16T08:01:19;4;3;
43479;PMS5003;29067;35.492;-97.520;2022-10-16T08:03:49;4;4;
43479;PMS5003;29067;35.492;-97.520;2022-10-16T08:06:18;5;4;
43479;PMS5003;29067;35.492;-97.520;2022-10-16T08:08:47;4;4;
43479;PMS5003;29067;35.492;-97.520;2022-10-16T08:11:15;4;3;
43479;PMS5003;29067;35.492;-97.520;2022-10-16T08:13:43;4;3;
43479;PMS5003;29067;35.492;-97.520;2022-10-16T08:16:11;4;4;
43479;PMS5003;29067;35.492;-97.520;2022-10-16T08:18:39;3;3;
43479;PMS5003;29067;35.492;-97.520;2022-10-16T08:21:11;4;4;
43479;PMS5003;29067;35.492;-97.520;2022-10-16T08:23:41;5;4;
43479;PMS5003;29067;35.492;-97.520;2022-10-16T08:26:09;4;4;
43479;PMS5003;29067;35.492;-97.520;2022-10-16T08:28:37;3;3;
43479;PMS5003;29067;35.492;-97.520;2022-10-16T08:31:07;4;3;
43479;PMS5003;29067;35.492;-97.520;2022-10-16T08:33:37;4;4;
43479;PMS5003;29067;35.492;-97.520;2022-10-16T08:36:06;3;3;
43479;PMS5003;29067;35.492;-97.520;2022-10-16T08:38:36;2;2;
43479;PMS5003;29067;35.492;-97.520;2022-10-16T08:43:22;4;4;
43479;PMS5003;29067;35.492;-97.520;2022-10-16T08:46:07;5;4;
43479;PMS5003;29067;35.492;-97.520;2022-10-16T08:48:44;3;2;
43479;PMS5003;29067;35.492;-97.520;2022-10-16T08:51:17;3;3;
43479;PMS5003;29067;35.492;-97.520;2022-10-16T08:53:50;3;3;
43479;PMS5003;29067;35.492;-97.520;2022-10-16T08:56:22;2;2;
43479;PMS5003;29067;35.492;-97.520;2022-10-16T08:58:51;2;2;
43479;PMS5003;29067;35.492;-97.520;2022-10-16T09:01:21;4;4;
43479;PMS5003;29067;35.492;-97.520;2022-10-16T09:03:57;3;3;
43479;PMS5003;29067;35.492;-97.520;2022-10-16T09:06:41;3;3;
43479;PMS5003;29067;35.492;-97.520;2022-10-16T09:09:22;4;4;
43479;PMS5003;29067;35.492;-97.520;2022-10-16T09:12:02;2;2;
43479;PMS5003;29067;35.492;-97.520;2022-10-16T09:14:38;3;3;
43479;PMS5003;29067;35.492;-97.520;2022-10-16T09:17:17;2;2;
43479;PMS5003;29067;35.492;-97.520;2022-10-16T09:19:55;4;3;
43479;PMS5003;29067;35.492;-97.520;2022-10-16T09:22:30;4;3;
43479;PMS5003;29067;35.492;-97.520;2022-10-16T09:24:59;3;3;
43479;PMS5003;29067;35.492;-97.520;2022-10-16T09:27:37;4;4;
43479;PMS5003;29067;35.492;-97.520;2022-10-16T09:30:10;3;3;
43479;PMS5003;29067;35.492;-97.520;2022-10-16T09:32:40;3;3;
43479;PMS5003;29067;35.492;-97.520;2022-10-16T09:35:11;3;3;
43479;PMS5003;29067;35.492;-97.520;2022-10-16T09:37:42;4;4;
43479;PMS5003;29067;35.492;-97.520;2022-10-16T09:40:13;3;3;
43479;PMS5003;29067;35.492;-97.520;2022-10-16T09:42:52;4;4;
43479;PMS5003;29067;35.492;-97.520;2022-10-16T09:45:28;3;3;
43479;PMS5003;29067;35.492;-97.520;2022-10-16T09:47:56;3;3;
43479;PMS5003;29067;35.492;-97.520;2022-10-16T09:50:24;3;3;
43479;PMS5003;29067;35.492;-97.520;2022-10-16T09:53:11;3;3;
43479;PMS5003;29067;35.492;-97.520;2022-10-16T09:55:48;3;3;
43479;PMS5003;29067;35.492;-97.520;2022-10-16T09:58:17;3;3;
43479;PMS5003;29067;35.492;-97.520;2022-10-16T10:00:48;3;3;
43479;PMS5003;29067;35.492;-97.520;2022-10-16T10:03:25;4;4;
43479;PMS5003;29067;35.492;-97.520;2022-10-16T10:06:03;4;4;
43479;PMS5003;29067;35.492;-97.520;2022-10-16T10:08:52;4;3;
43479;PMS5003;29067;35.492;-97.520;2022-10-16T10:11:36;3;3;
43479;PMS5003;29067;35.492;-97.520;2022-10-16T10:14:17;6;3;
43479;PMS5003;29067;35.492;-97.520;2022-10-16T10:16:49;3;3;
43479;PMS5003;29067;35.492;-97.520;2022-10-16T10:19:19;4;3;
43479;PMS5003;29067;35.492;-97.520;2022-10-16T10:21:48;3;3;
43479;PMS5003;29067;35.492;-97.520;2022-10-16T10:24:17;3;3;
43479;PMS5003;29067;35.492;-97.520;2022-10-16T10:26:49;3;3;
43479;PMS5003;29067;35.492;-97.520;2022-10-16T10:29:27;3;3;
43479;PMS5003;29067;35.492;-97.520;2022-10-16T10:32:08;5;5;
43479;PMS5003;29067;35.492;-97.520;2022-10-16T10:34:52;3;2;
43479;PMS5003;29067;35.492;-97.520;2022-10-16T10:37:37;3;3;
43479;PMS5003;29067;35.492;-97.520;2022-10-16T10:40:23;3;2;
43479;PMS5003;29067;35.492;-97.520;2022-10-16T10:43:03;3;3;
43479;PMS5003;29067;35.492;-97.520;2022-10-16T10:45:38;3;3;
43479;PMS5003;29067;35.492;-97.520;2022-10-16T10:48:15;5;3;
43479;PMS5003;29067;35.492;-97.520;2022-10-16T10:50:51;3;3;
43479;PMS5003;29067;35.492;-97.520;2022-10-16T10:53:30;4;4;
43479;PMS5003;29067;35.492;-97.520;2022-10-16T10:56:17;4;4;
43479;PMS5003;29067;35.492;-97.520;2022-10-16T10:59:12;4;3;
43479;PMS5003;29067;35.492;-97.520;2022-10-16T11:03:03;2;2;
43479;PMS5003;29067;35.492;-97.520;2022-10-16T11:05:47;4;4;
43479;PMS5003;29067;35.492;-97.520;2022-10-16T11:08:19;3;3;
43479;PMS5003;29067;35.492;-97.520;2022-10-16T11:10:52;5;4;
43479;PMS5003;29067;35.492;-97.520;2022-10-16T11:13:26;1;1;
43479;PMS5003;29067;35.492;-97.520;2022-10-16T11:16:01;3;3;
43479;PMS5003;29067;35.492;-97.520;2022-10-16T11:18:45;3;3;
43479;PMS5003;29067;35.492;-97.520;2022-10-16T11:21:19;4;4;
43479;PMS5003;29067;35.492;-97.520;2022-10-16T11:23:51;5;4;
43479;PMS5003;29067;35.492;-97.520;2022-10-16T11:26:24;3;2;
43479;PMS5003;29067;35.492;-97.520;2022-10-16T11:28:55;3;3;
43479;PMS5003;29067;35.492;-97.520;2022-10-16T11:31:26;4;4;
43479;PMS5003;29067;35.492;-97.520;2022-10-16T11:34:01;3;3;
43479;PMS5003;29067;35.492;-97.520;2022-10-16T11:36:35;4;3;
43479;PMS5003;29067;35.492;-97.520;2022-10-16T11:39:10;3;3;
43479;PMS5003;29067;35.492;-97.520;2022-10-16T11:41:47;4;4;
43479;PMS5003;29067;35.492;-97.520;2022-10-16T11:44:20;3;3;
43479;PMS5003;29067;35.492;-97.520;2022-10-16T11:47:03;3;3;
43479;PMS5003;29067;35.492;-97.520;2022-10-16T11:49:40;3;3;
43479;PMS5003;29067;35.492;-97.520;2022-10-16T11:52:12;3;3;
43479;PMS5003;29067;35.492;-97.520;2022-10-16T11:54:49;4;3;
43479;PMS5003;29067;35.492;-97.520;2022-10-16T11:57:23;3;3;
43479;PMS5003;29067;35.492;-97.520;2022-10-16T11:59:54;3;3;
43479;PMS5003;29067;35.492;-97.520;2022-10-16T12:02:35;3;3;
43479;PMS5003;29067;35.492;-97.520;2022-10-16T12:05:18;3;3;
43479;PMS5003;29067;35.492;-97.520;2022-10-16T12:07:54;4;3;
43479;PMS5003;29067;35.492;-97.520;2022-10-16T12:10:31;4;4;
43479;PMS5003;29067;35.492;-97.520;2022-10-16T12:12:59;4;3;
43479;PMS5003;29067;35.492;-97.520;2022-10-16T12:15:27;3;3;
43479;PMS5003;29067;35.492;-97.520;2022-10-16T12:17:57;5;5;
43479;PMS5003;29067;35.492;-97.520;2022-10-16T12:20:27;3;3;
43479;PMS5003;29067;35.492;-97.520;2022-10-16T12:22:56;3;3;
43479;PMS5003;29067;35.492;-97.520;2022-10-16T12:25:27;4;3;
43479;PMS5003;29067;35.492;-97.520;2022-10-16T12:27:57;3;3;
43479;PMS5003;29067;35.492;-97.520;2022-10-16T12:30:29;3;3;
43479;PMS5003;29067;35.492;-97.520;2022-10-16T12:33:00;3;3;
43479;PMS5003;29067;35.492;-97.520;2022-10-16T12:35:30;5;4;
43479;PMS5003;29067;35.492;-97.520;2022-10-16T12:38:05;3;3;
43479;PMS5003;29067;35.492;-97.520;2022-10-16T12:40:39;5;4;
43479;PMS5003;29067;35.492;-97.520;2022-10-16T12:43:12;2;2;
43479;PMS5003;29067;35.492;-97.520;2022-10-16T12:45:59;3;3;
43479;PMS5003;29067;35.492;-97.520;2022-10-16T12:48:28;2;2;
43479;PMS5003;29067;35.492;-97.520;2022-10-16T12:50:55;3;3;
43479;PMS5003;29067;35.492;-97.520;2022-10-16T12:53:24;4;4;
43479;PMS5003;29067;35.492;-97.520;2022-10-16T12:55:55;4;4;
43479;PMS5003;29067;35.492;-97.520;2022-10-16T12:58:37;3;3;
43479;PMS5003;29067;35.492;-97.520;2022-10-16T13:01:18;3;3;
43479;PMS5003;29067;35.492;-97.520;2022-10-16T13:04:01;3;3;
43479;PMS5003;29067;35.492;-97.520;2022-10-16T13:06:44;4;4;
43479;PMS5003;29067;35.492;-97.520;2022-10-16T13:09:24;4;4;
43479;PMS5003;29067;35.492;-97.520;2022-10-16T13:12:06;5;5;
43479;PMS5003;29067;35.492;-97.520;2022-10-16T13:14:52;4;3;
43479;PMS5003;29067;35.492;-97.520;2022-10-16T13:17:31;7;5;
43479;PMS5003;29067;35.492;-97.520;2022-10-16T13:20:10;3;3;
43479;PMS5003;29067;35.492;-97.520;2022-10-16T13:22:48;4;3;
43479;PMS5003;29067;35.492;-97.520;2022-10-16T13:25:25;5;5;
43479;PMS5003;29067;35.492;-97.520;2022-10-16T13:28:00;5;4;
43479;PMS5003;29067;35.492;-97.520;2022-10-16T13:30:31;4;4;
43479;PMS5003;29067;35.492;-97.520;2022-10-16T13:33:03;3;2;
43479;PMS5003;29067;35.492;-97.520;2022-10-16T13:35:35;3;3;
43479;PMS5003;29067;35.492;-97.520;2022-10-16T13:38:08;4;4;
43479;PMS5003;29067;35.492;-97.520;2022-10-16T13:40:55;3;3;
43479;PMS5003;29067;35.492;-97.520;2022-10-16T13:43:26;3;3;
43479;PMS5003;29067;35.492;-97.520;2022-10-16T13:45:59;2;2;
43479;PMS5003;29067;35.492;-97.520;2022-10-16T13:48:28;2;2;
43479;PMS5003;29067;35.492;-97.520;2022-10-16T13:51:02;2;2;
43479;PMS5003;29067;35.492;-97.520;2022-10-16T13:53:33;4;4;
43479;PMS5003;29067;35.492;-97.520;2022-10-16T13:56:03;3;3;
43479;PMS5003;29067;35.492;-97.520;2022-10-16T13:58:32;5;4;
43479;PMS5003;29067;35.492;-97.520;2022-10-16T14:01:01;3;3;
43479;PMS5003;29067;35.492;-97.520;2022-10-16T14:03:31;3;2;
43479;PMS5003;29067;35.492;-97.520;2022-10-16T14:06:01;3;2;
43479;PMS5003;29067;35.492;-97.520;2022-10-16T14:08:31;2;2;
43479;PMS5003;29067;35.492;-97.520;2022-10-16T14:10:59;2;2;
43479;PMS5003;29067;35.492;-97.520;2022-10-16T14:13:30;3;3;
43479;PMS5003;29067;35.492;-97.520;2022-10-16T14:16:02;5;3;
43479;PMS5003;29067;35.492;-97.520;2022-10-16T14:18:35;4;4;
43479;PMS5003;29067;35.492;-97.520;2022-10-16T14:21:07;4;4;
43479;PMS5003;29067;35.492;-97.520;2022-10-16T14:23:40;4;4;
43479;PMS5003;29067;35.492;-97.520;2022-10-16T14:26:13;3;2;
43479;PMS5003;29067;35.492;-97.520;2022-10-16T14:28:47;3;3;
43479;PMS5003;29067;35.492;-97.520;2022-10-16T14:31:25;3;3;
43479;PMS5003;29067;35.492;-97.520;2022-10-16T14:33:55;4;4;
43479;PMS5003;29067;35.492;-97.520;2022-10-16T14:36:24;4;3;
43479;PMS5003;29067;35.492;-97.520;2022-10-16T14:38:57;4;4;
43479;PMS5003;29067;35.492;-97.520;2022-10-16T14:41:27;4;3;
43479;PMS5003;29067;35.492;-97.520;2022-10-16T14:43:57;3;3;
43479;PMS5003;29067;35.492;-97.520;2022-10-16T14:46:31;4;2;
43479;PMS5003;29067;35.492;-97.520;2022-10-16T14:49:03;3;3;
43479;PMS5003;29067;35.492;-97.520;2022-10-16T14:51:41;3;3;
43479;PMS5003;29067;35.492;-97.520;2022-10-16T14:54:10;4;4;
43479;PMS5003;29067;35.492;-97.520;2022-10-16T14:56:43;5;5;
43479;PMS5003;29067;35.492;-97.520;2022-10-16T14:59:16;2;2;
43479;PMS5003;29067;35.492;-97.520;2022-10-16T15:01:49;3;3;
43479;PMS5003;29067;35.492;-97.520;2022-10-16T15:04:16;4;4;
43479;PMS5003;29067;35.492;-97.520;2022-10-16T15:06:44;4;3;
43479;PMS5003;29067;35.492;-97.520;2022-10-16T15:09:12;4;3;
43479;PMS5003;29067;35.492;-97.520;2022-10-16T15:11:40;5;5;
43479;PMS5003;29067;35.492;-97.520;2022-10-16T15:14:10;5;5;
43479;PMS5003;29067;35.492;-97.520;2022-10-16T15:16:39;6;5;
43479;PMS5003;29067;35.492;-97.520;2022-10-16T15:19:07;5;5;
43479;PMS5003;29067;35.492;-97.520;2022-10-16T15:21:35;5;5;
43479;PMS5003;29067;35.492;-97.520;2022-10-16T15:24:02;4;4;
43479;PMS5003;29067;35.492;-97.520;2022-10-16T15:26:34;3;3;
43479;PMS5003;29067;35.492;-97.520;2022-10-16T15:29:02;5;5;
43479;PMS5003;29067;35.492;-97.520;2022-10-16T15:31:30;6;6;
43479;PMS5003;29067;35.492;-97.520;2022-10-16T15:33:58;7;7;
43479;PMS5003;29067;35.492;-97.520;2022-10-16T15:36:26;5;5;
43479;PMS5003;29067;35.492;-97.520;2022-10-16T15:38:55;6;6;
43479;PMS5003;29067;35.492;-97.520;2022-10-16T15:41:23;6;6;
43479;PMS5003;29067;35.492;-97.520;2022-10-16T15:43:51;6;5;
43479;PMS5003;29067;35.492;-97.520;2022-10-16T15:46:19;4;4;
43479;PMS5003;29067;35.492;-97.520;2022-10-16T15:48:50;5;5;
43479;PMS5003;29067;35.492;-97.520;2022-10-16T15:51:22;5;5;
43479;PMS5003;29067;35.492;-97.520;2022-10-16T15:53:51;6;6;
43479;PMS5003;29067;35.492;-97.520;2022-10-16T15:56:18;5;5;
43479;PMS5003;29067;35.492;-97.520;2022-10-16T15:58:46;4;4;
43479;PMS5003;29067;35.492;-97.520;2022-10-16T16:01:15;5;5;
43479;PMS5003;29067;35.492;-97.520;2022-10-16T16:03:43;6;5;
43479;PMS5003;29067;35.492;-97.520;2022-10-16T16:06:12;4;4;
43479;PMS5003;29067;35.492;-97.520;2022-10-16T16:08:41;5;4;
43479;PMS5003;29067;35.492;-97.520;2022-10-16T16:11:09;8;6;
43479;PMS5003;29067;35.492;-97.520;2022-10-16T16:13:38;5;4;
43479;PMS5003;29067;35.492;-97.520;2022-10-16T16:16:07;6;5;
43479;PMS5003;29067;35.492;-97.520;2022-10-16T16:18:36;5;5;
43479;PMS5003;29067;35.492;-97.520;2022-10-16T16:21:04;5;5;
43479;PMS5003;29067;35.492;-97.520;2022-10-16T16:23:33;5;5;
43479;PMS5003;29067;35.492;-97.520;2022-10-16T16:26:03;5;4;
43479;PMS5003;29067;35.492;-97.520;2022-10-16T16:28:33;4;4;
43479;PMS5003;29067;35.492;-97.520;2022-10-16T16:31:01;4;4;
43479;PMS5003;29067;35.492;-97.520;2022-10-16T16:33:30;5;4;
43479;PMS5003;29067;35.492;-97.520;2022-10-16T16:35:59;3;3;
43479;PMS5003;29067;35.492;-97.520;2022-10-16T16:38:29;3;3;
43479;PMS5003;29067;35.492;-97.520;2022-10-16T16:40:58;4;4;
43479;PMS5003;29067;35.492;-97.520;2022-10-16T16:43:27;4;4;
43479;PMS5003;29067;35.492;-97.520;2022-10-16T16:45:54;4;4;
43479;PMS5003;29067;35.492;-97.520;2022-10-16T16:48:22;4;3;